createdAt,value
2023-03-20T00:00:19.987Z,17.85
2023-03-20T00:02:54.383Z,17.45
2023-03-20T00:05:30.317Z,18.32
2023-03-20T00:08:03.667Z,18.30
2023-03-20T00:10:46.499Z,16.20
2023-03-20T00:13:29.082Z,15.98
2023-03-20T00:16:03.094Z,17.45
2023-03-20T00:18:36.370Z,18.12
2023-03-20T00:21:20.531Z,18.60
2023-03-20T00:23:55.750Z,19.73
2023-03-20T00:26:46.670Z,20.97
2023-03-20T00:29:28.904Z,20.32
2023-03-20T00:32:02.090Z,18.17
2023-03-20T00:34:36.102Z,18.75
2023-03-20T00:37:12.033Z,18.60
2023-03-20T00:39:45.023Z,17.20
2023-03-20T00:42:22.548Z,18.70
2023-03-20T00:44:59.841Z,17.10
2023-03-20T00:47:32.777Z,17.57
2023-03-20T00:50:19.617Z,16.20
2023-03-20T00:52:53.924Z,14.43
2023-03-20T00:55:29.660Z,16.32
2023-03-20T00:58:04.682Z,15.60
2023-03-20T01:00:45.852Z,14.85
2023-03-20T01:03:27.861Z,14.33
2023-03-20T01:06:00.701Z,15.72
2023-03-20T01:08:33.809Z,15.70
2023-03-20T01:11:06.959Z,13.95
2023-03-20T01:13:40.937Z,13.75
2023-03-20T01:16:25.061Z,11.65
2023-03-20T01:18:58.206Z,14.15
2023-03-20T01:21:32.001Z,14.80
2023-03-20T01:24:06.707Z,14.05
2023-03-20T01:26:45.378Z,13.65
2023-03-20T01:29:24.457Z,16.37
2023-03-20T01:31:57.577Z,16.57
2023-03-20T01:34:31.567Z,16.73
2023-03-20T01:37:05.386Z,17.95
2023-03-20T01:39:39.893Z,19.67
2023-03-20T01:42:16.695Z,20.12
2023-03-20T01:44:49.576Z,20.23
2023-03-20T01:47:26.220Z,23.22
2023-03-20T01:50:23.978Z,22.82
2023-03-20T01:53:23.975Z,20.23
2023-03-20T01:56:00.634Z,23.00
2023-03-20T01:58:39.430Z,21.87
2023-03-20T02:01:16.295Z,20.88
2023-03-20T02:03:50.963Z,20.52
2023-03-20T02:06:27.641Z,19.40
2023-03-20T02:09:13.020Z,18.80
2023-03-20T02:11:49.160Z,19.80
2023-03-20T02:14:23.612Z,20.70
2023-03-20T02:17:01.762Z,18.23
2023-03-20T02:20:24.549Z,19.20
2023-03-20T02:23:37.867Z,19.42
2023-03-20T02:26:42.887Z,20.17
2023-03-20T02:29:48.484Z,18.05
2023-03-20T02:32:47.302Z,17.55
2023-03-20T02:35:33.789Z,16.75
2023-03-20T02:38:35.323Z,18.60
2023-03-20T02:41:25.381Z,19.00
2023-03-20T02:44:06.264Z,18.23
2023-03-20T02:46:47.220Z,17.98
2023-03-20T02:50:00.870Z,19.12
2023-03-20T02:52:50.888Z,17.75
2023-03-20T02:55:44.419Z,15.68
2023-03-20T02:58:35.876Z,17.50
2023-03-20T03:01:16.238Z,16.70
2023-03-20T03:03:53.657Z,16.48
2023-03-20T03:06:36.168Z,17.42
2023-03-20T03:09:22.896Z,17.30
2023-03-20T03:12:00.669Z,18.98
2023-03-20T03:14:50.222Z,16.35
2023-03-20T03:17:26.021Z,16.67
2023-03-20T03:20:05.130Z,15.25
2023-03-20T03:22:38.647Z,16.77
2023-03-20T03:25:14.264Z,15.25
2023-03-20T03:27:52.301Z,16.27
2023-03-20T03:30:34.391Z,13.95
2023-03-20T03:33:31.587Z,16.50
2023-03-20T03:36:16.658Z,16.10
2023-03-20T03:41:42.136Z,13.22
2023-03-20T03:44:34.237Z,15.38
2023-03-20T03:47:31.284Z,15.13
2023-03-20T03:50:09.180Z,15.25
2023-03-20T03:52:44.062Z,16.00
2023-03-20T03:55:25.825Z,15.30
2023-03-20T03:58:13.967Z,15.30
2023-03-20T04:00:50.052Z,15.55
2023-03-20T04:03:26.016Z,14.93
2023-03-20T04:06:01.185Z,17.02
2023-03-20T04:08:36.480Z,18.65
2023-03-20T04:13:42.658Z,17.45
2023-03-20T04:16:17.378Z,17.55
2023-03-20T04:18:51.052Z,17.52
2023-03-20T04:21:25.118Z,17.67
2023-03-20T04:23:58.013Z,18.62
2023-03-20T04:26:31.258Z,18.50
2023-03-20T04:29:04.790Z,18.02
2023-03-20T04:31:40.024Z,17.92
2023-03-20T04:34:18.337Z,17.50
2023-03-20T04:37:02.718Z,18.00
2023-03-20T04:39:37.950Z,18.62
2023-03-20T04:42:12.159Z,18.87
2023-03-20T04:44:46.349Z,19.42
2023-03-20T04:47:19.808Z,20.00
2023-03-20T04:49:53.446Z,19.80
2023-03-20T04:52:27.138Z,17.87
2023-03-20T04:55:01.151Z,17.62
2023-03-20T04:57:35.421Z,17.10
2023-03-20T05:00:11.776Z,16.73
2023-03-20T05:02:45.968Z,16.35
2023-03-20T05:05:20.643Z,16.70
2023-03-20T05:07:55.276Z,17.32
2023-03-20T05:10:39.363Z,17.73
2023-03-20T05:13:14.019Z,18.10
2023-03-20T05:15:58.242Z,17.57
2023-03-20T05:18:45.775Z,18.55
2023-03-20T05:21:36.974Z,19.55
2023-03-20T05:24:14.807Z,17.90
2023-03-20T05:26:52.098Z,20.05
2023-03-20T05:29:43.211Z,19.30
2023-03-20T05:32:21.046Z,18.42
2023-03-20T05:34:58.259Z,19.73
2023-03-20T05:37:33.687Z,19.65
2023-03-20T05:40:15.090Z,18.80
2023-03-20T05:43:05.974Z,18.17
2023-03-20T05:45:57.746Z,19.77
2023-03-20T05:48:33.201Z,18.67
2023-03-20T05:51:14.140Z,18.52
2023-03-20T05:53:57.846Z,17.37
2023-03-20T05:56:44.655Z,16.50
2023-03-20T05:59:19.698Z,15.15
2023-03-20T06:02:10.675Z,16.75
2023-03-20T06:04:45.988Z,15.90
2023-03-20T06:07:20.535Z,16.07
2023-03-20T06:09:56.133Z,18.15
2023-03-20T06:12:28.915Z,17.27
2023-03-20T06:15:02.090Z,16.70
2023-03-20T06:17:36.912Z,16.90
2023-03-20T06:20:12.926Z,17.95
2023-03-20T06:22:46.666Z,18.80
2023-03-20T06:25:22.134Z,19.15
2023-03-20T06:27:58.344Z,19.80
2023-03-20T06:30:31.930Z,19.50
2023-03-20T06:33:07.580Z,19.25
2023-03-20T06:35:42.264Z,21.70
2023-03-20T06:38:17.202Z,18.35
2023-03-20T06:40:50.856Z,16.52
2023-03-20T06:43:27.173Z,19.62
2023-03-20T06:46:00.289Z,20.80
2023-03-20T06:48:35.792Z,16.02
2023-03-20T06:51:10.561Z,15.05
2023-03-20T06:53:45.113Z,15.85
2023-03-20T06:56:22.738Z,16.25
2023-03-20T06:58:56.460Z,16.10
2023-03-20T07:01:30.336Z,16.17
2023-03-20T07:04:03.310Z,14.30
2023-03-20T07:06:38.795Z,14.65
2023-03-20T07:09:11.806Z,14.23
2023-03-20T07:11:45.357Z,15.53
2023-03-20T07:14:20.157Z,16.32
2023-03-20T07:16:56.668Z,17.65
2023-03-20T07:22:05.777Z,18.07
2023-03-20T07:24:40.900Z,18.17
2023-03-20T07:27:14.353Z,20.95
2023-03-20T07:29:48.081Z,19.48
2023-03-20T07:32:22.664Z,19.55
2023-03-20T07:34:59.129Z,21.12
2023-03-20T07:37:34.182Z,20.90
2023-03-20T07:40:09.136Z,21.33
2023-03-20T07:42:45.980Z,20.77
2023-03-20T07:45:20.799Z,19.65
2023-03-20T07:47:54.083Z,19.43
2023-03-20T07:50:26.969Z,17.73
2023-03-20T07:52:59.923Z,19.17
2023-03-20T07:55:33.064Z,18.57
2023-03-20T07:58:06.728Z,20.00
2023-03-20T08:00:39.933Z,18.05
2023-03-20T08:03:12.881Z,16.90
2023-03-20T08:05:47.453Z,16.65
2023-03-20T08:08:21.693Z,18.92
2023-03-20T08:10:54.519Z,17.30
2023-03-20T08:13:29.268Z,17.73
2023-03-20T08:16:02.119Z,15.95
2023-03-20T08:18:35.422Z,16.53
2023-03-20T08:21:09.159Z,15.83
2023-03-20T08:23:42.338Z,14.68
2023-03-20T08:26:16.322Z,16.97
2023-03-20T08:28:51.405Z,15.45
2023-03-20T08:31:24.494Z,15.23
2023-03-20T08:33:58.069Z,12.68
2023-03-20T08:36:31.636Z,13.62
2023-03-20T08:39:07.218Z,14.25
2023-03-20T08:41:42.319Z,13.30
2023-03-20T08:44:16.669Z,12.45
2023-03-20T08:46:49.782Z,13.10
2023-03-20T08:49:22.683Z,12.70
2023-03-20T08:51:56.368Z,12.93
2023-03-20T08:54:30.081Z,13.25
2023-03-20T08:57:03.592Z,14.87
2023-03-20T08:59:36.986Z,15.17
2023-03-20T09:02:12.404Z,14.68
2023-03-20T09:04:45.290Z,15.40
2023-03-20T09:07:18.844Z,15.65
2023-03-20T09:09:51.854Z,14.68
2023-03-20T09:12:25.126Z,12.85
2023-03-20T09:14:57.984Z,12.80
2023-03-20T09:17:31.938Z,13.80
2023-03-20T09:20:05.544Z,12.45
2023-03-20T09:22:40.502Z,11.90
2023-03-20T09:25:13.817Z,12.75
2023-03-20T09:27:47.172Z,11.30
2023-03-20T09:30:19.930Z,9.88
2023-03-20T09:32:54.112Z,10.08
2023-03-20T09:35:27.024Z,10.90
2023-03-20T09:37:59.952Z,10.25
2023-03-20T09:40:52.621Z,10.13
2023-03-20T09:44:11.389Z,10.77
2023-03-20T09:47:20.496Z,11.53
2023-03-20T09:49:59.665Z,11.53
2023-03-20T09:52:40.818Z,11.70
2023-03-20T09:55:21.033Z,10.23
2023-03-20T09:57:58.274Z,9.65
2023-03-20T10:00:33.107Z,10.08
2023-03-20T10:03:15.003Z,9.53
2023-03-20T10:06:09.114Z,10.23
2023-03-20T10:08:43.561Z,10.45
2023-03-20T10:11:44.933Z,10.85
2023-03-20T10:14:41.209Z,10.43
2023-03-20T10:17:24.531Z,10.75
2023-03-20T10:20:29.673Z,11.15
2023-03-20T10:23:18.879Z,10.05
2023-03-20T10:26:11.344Z,13.05
2023-03-20T10:28:54.833Z,11.90
2023-03-20T10:31:51.366Z,11.50
2023-03-20T10:34:56.815Z,12.28
2023-03-20T10:37:58.805Z,12.00
2023-03-20T10:40:39.805Z,11.97
2023-03-20T10:43:25.515Z,12.63
2023-03-20T10:46:17.855Z,12.25
2023-03-20T10:48:56.348Z,13.20
2023-03-20T10:51:42.155Z,12.85
2023-03-20T10:54:25.175Z,12.55
2023-03-20T10:57:06.797Z,15.30
2023-03-20T10:59:55.052Z,13.40
2023-03-20T11:02:33.042Z,13.20
2023-03-20T11:05:37.142Z,13.20
2023-03-20T11:08:15.666Z,12.30
2023-03-20T11:10:48.400Z,13.88
2023-03-20T11:13:37.124Z,12.70
2023-03-20T11:16:33.896Z,13.55
2023-03-20T11:19:12.336Z,13.10
2023-03-20T11:21:56.425Z,12.55
2023-03-20T11:24:40.288Z,13.03
2023-03-20T11:27:28.341Z,13.53
2023-03-20T11:30:06.101Z,11.57
2023-03-20T11:32:49.113Z,11.25
2023-03-20T11:35:31.361Z,10.63
2023-03-20T11:38:24.172Z,10.53
2023-03-20T11:40:58.034Z,11.83
2023-03-20T11:43:31.575Z,11.63
2023-03-20T11:46:05.508Z,11.68
2023-03-20T11:51:20.212Z,11.03
2023-03-20T11:54:13.211Z,10.05
2023-03-20T11:56:57.182Z,10.20
2023-03-20T11:59:35.470Z,10.80
2023-03-20T12:02:14.034Z,10.35
2023-03-20T12:04:47.869Z,10.65
2023-03-20T12:07:25.464Z,11.20
2023-03-20T12:10:09.765Z,11.63
2023-03-20T12:13:04.442Z,10.35
2023-03-20T12:15:41.808Z,9.78
2023-03-20T12:18:30.523Z,10.13
2023-03-20T12:21:23.257Z,12.10
2023-03-20T12:24:03.202Z,13.58
2023-03-20T12:27:04.656Z,9.98
2023-03-20T12:29:51.827Z,11.55
2023-03-20T12:32:44.331Z,13.13
2023-03-20T12:35:31.460Z,10.40
2023-03-20T12:38:08.179Z,13.68
2023-03-20T12:40:45.321Z,8.05
2023-03-20T12:43:30.876Z,8.63
2023-03-20T12:46:23.672Z,11.22
2023-03-20T12:49:22.156Z,8.88
2023-03-20T12:52:15.104Z,9.00
2023-03-20T12:55:01.938Z,11.20
2023-03-20T12:58:04.232Z,8.45
2023-03-20T13:01:01.615Z,10.03
2023-03-20T13:03:51.861Z,11.78
2023-03-20T13:06:47.391Z,9.93
2023-03-20T13:09:49.441Z,8.40
2023-03-20T13:13:01.024Z,7.17
2023-03-20T13:16:06.084Z,7.53
2023-03-20T13:19:04.496Z,7.95
2023-03-20T13:21:51.256Z,7.87
2023-03-20T13:24:49.291Z,8.23
2023-03-20T13:27:41.274Z,6.80
2023-03-20T13:30:40.317Z,6.75
2023-03-20T13:33:23.199Z,8.13
2023-03-20T13:36:06.525Z,6.83
2023-03-20T13:38:43.581Z,6.80
2023-03-20T13:41:16.697Z,6.28
2023-03-20T13:44:02.023Z,8.33
2023-03-20T13:46:51.040Z,6.10
2023-03-20T13:49:48.358Z,6.35
2023-03-20T13:52:38.258Z,6.87
2023-03-20T13:55:30.193Z,7.55
2023-03-20T13:58:28.826Z,9.98
2023-03-20T14:01:27.406Z,6.72
2023-03-20T14:04:01.882Z,8.00
2023-03-20T14:06:49.100Z,7.00
2023-03-20T14:09:37.220Z,10.25
2023-03-20T14:12:13.877Z,10.30
2023-03-20T14:14:58.935Z,6.92
2023-03-20T14:17:33.177Z,9.30
2023-03-20T14:20:31.123Z,10.15
2023-03-20T14:23:06.001Z,13.03
2023-03-20T14:25:44.053Z,10.32
2023-03-20T14:28:27.770Z,9.60
2023-03-20T14:31:26.533Z,10.70
2023-03-20T14:34:22.113Z,11.10
2023-03-20T14:37:06.483Z,10.90
2023-03-20T14:39:47.100Z,10.20
2023-03-20T14:42:30.500Z,12.40
2023-03-20T14:45:48.334Z,12.28
2023-03-20T14:48:43.861Z,17.00
2023-03-20T14:51:42.522Z,9.58
2023-03-20T14:54:29.387Z,12.88
2023-03-20T14:57:13.160Z,12.05
2023-03-20T14:59:46.322Z,13.60
2023-03-20T15:02:32.752Z,19.03
2023-03-20T15:05:06.480Z,12.98
2023-03-20T15:10:13.485Z,11.60
2023-03-20T15:12:46.668Z,12.50
2023-03-20T15:15:31.874Z,15.08
2023-03-20T15:18:15.746Z,15.95
2023-03-20T15:20:49.104Z,15.43
2023-03-20T15:23:23.570Z,16.17
2023-03-20T15:25:56.506Z,15.80
2023-03-20T15:28:31.592Z,13.75
2023-03-20T15:31:05.068Z,9.70
2023-03-20T15:33:42.520Z,12.53
2023-03-20T15:36:23.093Z,13.55
2023-03-20T15:39:17.619Z,14.30
2023-03-20T15:41:58.228Z,15.40
2023-03-20T15:44:40.058Z,16.23
2023-03-20T15:47:22.931Z,16.50
2023-03-20T15:50:02.927Z,20.77
2023-03-20T15:52:44.874Z,43.35
2023-03-20T15:55:21.572Z,39.13
2023-03-20T15:58:01.086Z,31.15
2023-03-20T16:00:40.037Z,28.62
2023-03-20T16:03:18.679Z,24.43
2023-03-20T16:05:53.021Z,22.22
2023-03-20T16:08:34.212Z,25.05
2023-03-20T16:11:11.544Z,21.52
2023-03-20T16:13:49.902Z,21.60
2023-03-20T16:16:25.267Z,20.65
2023-03-20T16:18:59.412Z,22.27
2023-03-20T16:21:41.404Z,27.25
2023-03-20T16:24:25.596Z,25.68
2023-03-20T16:26:59.629Z,22.95
2023-03-20T16:29:32.575Z,24.85
2023-03-20T16:32:18.930Z,22.95
2023-03-20T16:34:53.214Z,24.35
2023-03-20T16:40:35.564Z,19.57
2023-03-20T16:43:20.698Z,23.23
2023-03-20T16:45:56.675Z,24.75
2023-03-20T16:48:39.312Z,24.92
2023-03-20T16:51:21.526Z,23.35
2023-03-20T16:54:02.715Z,27.13
2023-03-20T16:56:39.613Z,30.70
2023-03-20T16:59:17.311Z,26.45
2023-03-20T17:01:53.012Z,28.15
2023-03-20T17:04:39.875Z,29.92
2023-03-20T17:07:19.484Z,36.70
2023-03-20T17:10:22.008Z,38.60
2023-03-20T17:12:55.472Z,37.08
2023-03-20T17:15:28.769Z,39.92
2023-03-20T17:18:03.504Z,37.17
2023-03-20T17:20:36.834Z,37.95
2023-03-20T17:23:19.776Z,40.38
2023-03-20T17:25:54.398Z,57.10
2023-03-20T17:28:32.031Z,49.48
2023-03-20T17:31:05.839Z,48.92
2023-03-20T17:33:40.527Z,48.35
2023-03-20T17:36:32.797Z,45.67
2023-03-20T17:39:05.583Z,46.58
2023-03-20T17:41:39.109Z,42.17
2023-03-20T17:44:12.543Z,45.45
2023-03-20T17:46:57.749Z,49.95
2023-03-20T17:49:23.071Z,59.75
2023-03-20T17:51:57.476Z,51.65
2023-03-20T17:54:30.967Z,54.88
2023-03-20T17:57:04.120Z,59.63
2023-03-20T17:59:36.908Z,58.87
2023-03-20T18:02:13.397Z,60.45
2023-03-20T18:04:50.099Z,63.05
2023-03-20T18:07:23.658Z,63.52
2023-03-20T18:09:57.235Z,67.75
2023-03-20T18:12:30.964Z,67.78
2023-03-20T18:15:04.482Z,73.52
2023-03-20T18:20:29.764Z,75.70
2023-03-20T18:23:03.726Z,85.38
2023-03-20T18:25:37.719Z,85.15
2023-03-20T18:28:18.926Z,80.85
2023-03-20T18:30:53.681Z,75.80
2023-03-20T18:33:28.651Z,92.02
2023-03-20T18:36:02.247Z,86.32
2023-03-20T18:38:35.713Z,88.37
2023-03-20T18:41:09.347Z,82.82
2023-03-20T18:43:44.233Z,80.95
2023-03-20T18:46:22.101Z,73.83
2023-03-20T18:48:56.981Z,68.42
2023-03-20T18:51:32.822Z,65.15
2023-03-20T18:54:05.967Z,63.20
2023-03-20T18:56:39.450Z,58.65
2023-03-20T18:59:14.416Z,56.98
2023-03-20T19:01:47.264Z,54.30
2023-03-20T19:04:22.911Z,53.78
2023-03-20T19:06:56.670Z,50.10
2023-03-20T19:09:29.971Z,39.73
2023-03-20T19:12:02.704Z,37.10
2023-03-20T19:14:36.072Z,34.47
2023-03-20T19:17:10.932Z,31.02
2023-03-20T19:19:44.435Z,30.55
2023-03-20T19:22:28.981Z,28.30
2023-03-20T19:24:53.308Z,28.35
2023-03-20T19:27:26.502Z,30.20
2023-03-20T19:30:00.786Z,33.25
2023-03-20T19:32:34.806Z,35.58
2023-03-20T19:37:47.468Z,31.10
2023-03-20T19:40:38.353Z,33.38
2023-03-20T19:43:10.715Z,37.00
2023-03-20T19:45:46.713Z,38.90
2023-03-20T19:48:22.665Z,38.73
2023-03-20T19:50:57.173Z,41.77
2023-03-20T19:53:31.673Z,35.00
2023-03-20T19:56:05.023Z,40.60
2023-03-20T19:58:40.951Z,40.08
2023-03-20T20:01:25.860Z,37.33
2023-03-20T20:03:59.474Z,34.53
2023-03-20T20:06:33.464Z,31.82
2023-03-20T20:09:06.637Z,30.30
2023-03-20T20:11:39.821Z,29.18
2023-03-20T20:14:14.797Z,34.05
2023-03-20T20:16:52.026Z,30.62
2023-03-20T20:19:25.044Z,30.25
2023-03-20T20:22:24.917Z,27.30
2023-03-20T20:24:34.211Z,26.93
2023-03-20T20:27:18.723Z,28.32
2023-03-20T20:29:49.687Z,28.67
2023-03-20T20:32:26.042Z,31.27
2023-03-20T20:35:38.815Z,33.23
2023-03-20T20:38:25.189Z,34.80
2023-03-20T20:40:17.310Z,26.35
2023-03-20T20:42:52.242Z,23.42
2023-03-20T20:45:31.527Z,25.95
2023-03-20T20:48:07.512Z,27.95
2023-03-20T20:50:43.523Z,25.02
2023-03-20T20:53:17.912Z,24.37
2023-03-20T20:55:51.408Z,22.90
2023-03-20T20:58:24.796Z,25.27
2023-03-20T21:00:58.736Z,24.20
2023-03-20T21:03:32.032Z,22.17
2023-03-20T21:06:09.674Z,24.23
2023-03-20T21:08:42.422Z,23.80
2023-03-20T21:11:16.928Z,21.12
2023-03-20T21:13:54.943Z,21.30
2023-03-20T21:16:29.441Z,20.55
2023-03-20T21:19:02.804Z,24.32
2023-03-20T21:21:36.020Z,20.17
2023-03-20T21:24:30.574Z,19.85
2023-03-20T21:26:46.582Z,23.20
2023-03-20T21:29:20.939Z,24.95
2023-03-20T21:31:54.896Z,27.35
2023-03-20T21:34:29.319Z,29.70
2023-03-20T21:37:56.156Z,28.10
2023-03-20T21:39:38.691Z,32.88
2023-03-20T21:42:16.960Z,39.63
2023-03-20T21:46:04.601Z,32.03
2023-03-20T21:50:45.931Z,42.53
2023-03-20T21:53:16.994Z,42.88
2023-03-20T21:58:23.898Z,39.50
2023-03-20T22:03:01.595Z,41.08
2023-03-20T22:09:09.731Z,36.40
2023-03-20T22:11:38.589Z,33.80
2023-03-20T22:16:33.742Z,32.95
2023-03-20T22:19:29.459Z,34.78
2023-03-20T22:29:48.237Z,33.60
2023-03-20T22:39:48.000Z,33.73
2023-03-20T22:42:38.231Z,36.38
2023-03-20T22:45:00.133Z,34.38
2023-03-20T22:46:54.228Z,37.05
2023-03-20T22:49:27.584Z,38.50
2023-03-20T22:52:24.546Z,39.83
2023-03-20T22:54:36.554Z,38.58
2023-03-20T22:57:09.780Z,40.13
2023-03-20T22:59:42.710Z,38.78
2023-03-20T23:02:17.518Z,39.27
2023-03-20T23:07:22.869Z,42.03
2023-03-20T23:09:55.969Z,41.97
2023-03-20T23:12:28.928Z,44.67
2023-03-20T23:15:02.174Z,45.70
2023-03-20T23:17:35.779Z,43.75
2023-03-20T23:20:12.942Z,44.48
2023-03-20T23:22:45.539Z,43.13
2023-03-20T23:25:30.993Z,44.77
2023-03-20T23:27:55.610Z,45.23
2023-03-20T23:30:37.904Z,45.95
2023-03-20T23:33:03.616Z,45.15
2023-03-20T23:35:37.034Z,47.40
2023-03-20T23:38:10.370Z,47.60
2023-03-20T23:40:44.913Z,45.38
2023-03-20T23:43:19.030Z,42.43
2023-03-20T23:45:52.515Z,42.75
2023-03-20T23:48:26.256Z,46.42
2023-03-20T23:50:59.453Z,48.83
2023-03-20T23:53:33.572Z,46.48
2023-03-20T23:56:07.086Z,49.40
2023-03-20T23:58:47.573Z,47.65
